createdAt,value
2023-02-15T00:00:34.925Z,27.83
2023-02-15T00:04:23.118Z,25.27
2023-02-15T00:08:06.076Z,24.23
2023-02-15T00:11:51.965Z,23.60
2023-02-15T00:15:34.619Z,24.27
2023-02-15T00:19:19.225Z,24.43
2023-02-15T00:23:01.866Z,25.37
2023-02-15T00:26:47.263Z,22.57
2023-02-15T00:30:32.606Z,22.63
2023-02-15T00:34:17.192Z,22.40
2023-02-15T00:37:59.846Z,22.43
2023-02-15T00:41:42.745Z,26.83
2023-02-15T00:45:25.407Z,26.07
2023-02-15T00:49:09.487Z,23.80
2023-02-15T00:52:52.190Z,21.67
2023-02-15T00:56:34.890Z,20.20
2023-02-15T01:00:17.986Z,22.73
2023-02-15T01:04:00.713Z,21.93
2023-02-15T01:07:44.792Z,22.00
2023-02-15T01:11:27.388Z,22.47
2023-02-15T01:15:10.492Z,19.93
2023-02-15T01:18:53.244Z,20.43
2023-02-15T01:22:35.903Z,18.00
2023-02-15T01:26:20.171Z,18.30
2023-02-15T01:30:03.061Z,21.37
2023-02-15T01:33:48.488Z,20.90
2023-02-15T01:37:32.227Z,20.27
2023-02-15T01:41:28.624Z,16.93
2023-02-15T01:45:21.761Z,17.67
2023-02-15T01:49:09.877Z,19.43
2023-02-15T01:52:55.139Z,18.87
2023-02-15T01:56:39.972Z,16.70
2023-02-15T02:00:24.677Z,16.33
2023-02-15T02:04:13.263Z,18.13
2023-02-15T02:07:58.661Z,15.87
2023-02-15T02:11:41.535Z,17.30
2023-02-15T02:15:29.363Z,16.73
2023-02-15T02:19:36.966Z,15.67
2023-02-15T02:23:29.184Z,15.63
2023-02-15T02:27:31.272Z,14.17
2023-02-15T02:31:39.955Z,16.00
2023-02-15T02:35:30.626Z,15.93
2023-02-15T02:39:23.478Z,15.70
2023-02-15T02:43:09.697Z,14.27
2023-02-15T02:46:54.517Z,16.63
2023-02-15T02:50:41.476Z,16.53
2023-02-15T02:54:24.232Z,15.83
2023-02-15T02:58:11.514Z,16.57
2023-02-15T03:01:56.521Z,17.27
2023-02-15T03:05:43.936Z,16.00
2023-02-15T03:09:35.494Z,15.90
2023-02-15T03:13:18.699Z,17.63
2023-02-15T03:17:02.165Z,18.63
2023-02-15T03:20:46.339Z,20.80
2023-02-15T03:24:33.200Z,40.63
2023-02-15T03:28:20.472Z,17.07
2023-02-15T03:32:06.280Z,37.93
2023-02-15T03:35:54.638Z,17.67
2023-02-15T03:39:41.707Z,15.73
2023-02-15T03:43:28.827Z,15.97
2023-02-15T03:47:15.751Z,29.20
2023-02-15T03:51:21.681Z,15.03
2023-02-15T03:55:04.386Z,16.73
2023-02-15T03:59:04.648Z,14.83
2023-02-15T04:03:02.789Z,17.13
2023-02-15T04:06:46.856Z,17.80
2023-02-15T04:10:47.042Z,15.73
2023-02-15T04:14:47.181Z,18.53
2023-02-15T04:18:47.443Z,24.70
2023-02-15T04:22:49.069Z,26.03
2023-02-15T04:26:31.778Z,25.13
2023-02-15T04:30:15.844Z,20.03
2023-02-15T04:33:58.520Z,17.37
2023-02-15T04:37:43.192Z,17.13
2023-02-15T04:41:25.921Z,15.23
2023-02-15T04:45:09.418Z,22.47
2023-02-15T04:48:52.109Z,21.63
2023-02-15T04:52:34.829Z,15.50
2023-02-15T04:56:18.861Z,16.83
2023-02-15T05:00:01.553Z,14.70
2023-02-15T05:03:44.242Z,23.90
2023-02-15T05:07:26.948Z,18.07
2023-02-15T05:11:09.626Z,16.97
2023-02-15T05:14:53.652Z,24.17
2023-02-15T05:18:36.334Z,18.47
2023-02-15T05:22:19.002Z,18.00
2023-02-15T05:26:18.984Z,15.57
2023-02-15T05:30:03.346Z,22.13
2023-02-15T05:33:46.351Z,17.70
2023-02-15T05:37:29.033Z,18.60
2023-02-15T05:41:13.086Z,19.07
2023-02-15T05:44:55.779Z,18.90
2023-02-15T05:48:39.853Z,18.30
2023-02-15T05:52:22.548Z,21.17
2023-02-15T05:56:07.866Z,19.47
2023-02-15T05:59:50.621Z,22.57
2023-02-15T06:03:33.351Z,19.37
2023-02-15T06:07:17.381Z,20.10
2023-02-15T06:11:00.039Z,19.57
2023-02-15T06:14:42.692Z,21.60
2023-02-15T06:18:25.386Z,19.33
2023-02-15T06:22:09.882Z,19.50
2023-02-15T06:25:53.893Z,21.80
2023-02-15T06:29:36.611Z,19.50
2023-02-15T06:33:19.353Z,19.93
2023-02-15T06:37:02.013Z,19.13
2023-02-15T06:40:44.695Z,18.90
2023-02-15T06:44:28.819Z,19.97
2023-02-15T06:48:12.180Z,22.37
2023-02-15T06:51:54.838Z,21.43
2023-02-15T06:55:39.515Z,21.30
2023-02-15T06:59:22.269Z,20.50
2023-02-15T07:03:06.412Z,19.97
2023-02-15T07:06:49.071Z,19.83
2023-02-15T07:10:31.896Z,20.57
2023-02-15T07:14:14.679Z,19.83
2023-02-15T07:17:57.382Z,21.77
2023-02-15T07:21:41.468Z,20.17
2023-02-15T07:25:26.865Z,20.73
2023-02-15T07:29:12.509Z,22.93
2023-02-15T07:33:15.330Z,25.13
2023-02-15T07:36:59.306Z,22.43
2023-02-15T07:40:41.960Z,23.77
2023-02-15T07:44:24.660Z,19.70
2023-02-15T07:48:08.472Z,20.87
2023-02-15T07:51:51.181Z,23.20
2023-02-15T07:55:35.198Z,21.03
2023-02-15T07:59:17.888Z,25.63
2023-02-15T08:03:15.852Z,24.33
2023-02-15T08:06:58.603Z,23.33
2023-02-15T08:10:59.460Z,25.70
2023-02-15T08:14:42.202Z,25.93
2023-02-15T08:18:24.966Z,24.53
2023-02-15T08:22:08.868Z,23.57
2023-02-15T08:25:52.887Z,27.20
2023-02-15T08:29:37.217Z,28.80
2023-02-15T08:33:19.941Z,23.03
2023-02-15T08:37:02.920Z,22.50
2023-02-15T08:40:45.656Z,26.13
2023-02-15T08:44:30.178Z,27.43
2023-02-15T08:48:15.430Z,26.60
2023-02-15T08:51:58.177Z,27.43
2023-02-15T08:55:41.916Z,25.57
2023-02-15T08:59:25.920Z,28.57
2023-02-15T09:03:09.950Z,25.97
2023-02-15T09:06:53.154Z,25.47
2023-02-15T09:10:38.745Z,25.73
2023-02-15T09:14:24.370Z,25.73
2023-02-15T09:18:08.557Z,24.60
2023-02-15T09:21:53.146Z,30.83
2023-02-15T09:25:36.884Z,31.10
2023-02-15T09:29:20.564Z,24.90
2023-02-15T09:33:04.933Z,26.87
2023-02-15T09:36:50.748Z,26.47
2023-02-15T09:40:42.779Z,23.57
2023-02-15T09:44:35.899Z,25.73
2023-02-15T09:48:32.943Z,22.80
2023-02-15T09:52:38.501Z,25.70
2023-02-15T09:56:30.386Z,27.17
2023-02-15T10:00:21.140Z,26.63
2023-02-15T10:04:19.977Z,26.43
2023-02-15T10:08:20.968Z,23.87
2023-02-15T10:12:14.970Z,27.00
2023-02-15T10:16:10.527Z,27.17
2023-02-15T10:20:05.910Z,25.23
2023-02-15T10:23:59.305Z,30.57
2023-02-15T10:27:47.743Z,27.03
2023-02-15T10:31:35.576Z,25.57
2023-02-15T10:35:22.607Z,29.57
2023-02-15T10:39:09.475Z,34.13
2023-02-15T10:43:15.126Z,27.90
2023-02-15T10:47:29.257Z,30.67
2023-02-15T10:51:16.688Z,30.07
2023-02-15T10:55:06.785Z,27.07
2023-02-15T10:58:59.793Z,29.40
2023-02-15T11:03:02.501Z,29.40
2023-02-15T11:06:52.195Z,29.57
2023-02-15T11:10:41.297Z,31.37
2023-02-15T11:14:32.730Z,34.27
2023-02-15T11:18:17.823Z,28.90
2023-02-15T11:22:03.613Z,37.77
2023-02-15T11:25:48.693Z,31.13
2023-02-15T11:29:34.974Z,26.47
2023-02-15T11:33:19.655Z,34.17
2023-02-15T11:37:07.047Z,29.57
2023-02-15T11:40:51.110Z,30.73
2023-02-15T11:44:37.479Z,35.70
2023-02-15T11:48:20.174Z,39.33
2023-02-15T11:52:05.046Z,39.37
2023-02-15T11:55:49.378Z,32.13
2023-02-15T11:59:37.682Z,34.97
2023-02-15T12:03:29.270Z,42.23
2023-02-15T12:07:16.862Z,34.53
2023-02-15T12:11:03.044Z,39.70
2023-02-15T12:14:51.016Z,38.73
2023-02-15T12:18:39.785Z,42.33
2023-02-15T12:22:25.080Z,34.90
2023-02-15T12:26:07.887Z,32.97
2023-02-15T12:29:53.990Z,39.73
2023-02-15T12:33:37.666Z,34.63
2023-02-15T12:37:23.916Z,38.77
2023-02-15T12:41:13.067Z,37.30
2023-02-15T12:45:02.070Z,36.63
2023-02-15T12:48:44.782Z,37.93
2023-02-15T12:52:27.683Z,36.63
2023-02-15T12:56:11.786Z,32.03
2023-02-15T12:59:56.688Z,36.17
2023-02-15T13:03:48.833Z,35.63
2023-02-15T13:07:33.166Z,34.80
2023-02-15T13:11:22.583Z,30.93
2023-02-15T13:15:24.367Z,28.87
2023-02-15T13:19:13.389Z,35.30
2023-02-15T13:23:01.757Z,31.77
2023-02-15T13:26:46.146Z,40.70
2023-02-15T13:30:33.714Z,29.40
2023-02-15T13:34:22.009Z,25.13
2023-02-15T13:38:44.459Z,25.67
2023-02-15T13:42:29.888Z,29.70
2023-02-15T13:46:21.695Z,33.30
2023-02-15T13:50:31.582Z,28.13
2023-02-15T13:54:30.583Z,31.03
2023-02-15T13:58:33.833Z,25.13
2023-02-15T14:02:38.826Z,23.57
2023-02-15T14:06:42.634Z,22.27
2023-02-15T14:10:42.299Z,30.43
2023-02-15T14:14:52.151Z,25.07
2023-02-15T14:18:38.338Z,29.17
2023-02-15T14:22:28.459Z,22.10
2023-02-15T14:26:17.497Z,21.70
2023-02-15T14:30:02.135Z,31.87
2023-02-15T14:33:50.100Z,26.83
2023-02-15T14:37:43.821Z,20.90
2023-02-15T14:41:32.075Z,20.37
2023-02-15T14:45:22.358Z,25.00
2023-02-15T14:49:09.214Z,24.70
2023-02-15T14:53:25.418Z,26.70
2023-02-15T14:57:27.516Z,19.03
2023-02-15T15:01:11.898Z,22.00
2023-02-15T15:05:01.091Z,24.10
2023-02-15T15:08:43.860Z,20.37
2023-02-15T15:12:40.983Z,34.93
2023-02-15T15:16:50.084Z,23.90
2023-02-15T15:20:49.587Z,25.47
2023-02-15T15:24:54.405Z,28.40
2023-02-15T15:28:59.969Z,21.83
2023-02-15T15:32:47.256Z,25.27
2023-02-15T15:36:52.670Z,27.33
2023-02-15T15:40:44.783Z,23.17
2023-02-15T15:44:58.475Z,31.50
2023-02-15T15:48:42.546Z,29.07
2023-02-15T15:52:25.535Z,25.60
2023-02-15T15:56:12.918Z,28.20
2023-02-15T15:59:59.607Z,29.93
2023-02-15T16:03:50.975Z,31.47
2023-02-15T16:07:33.658Z,27.03
2023-02-15T16:11:19.174Z,23.50
2023-02-15T16:15:08.845Z,33.03
2023-02-15T16:18:52.219Z,28.97
2023-02-15T16:22:35.100Z,23.87
2023-02-15T16:26:23.010Z,30.13
2023-02-15T16:30:27.919Z,26.90
2023-02-15T16:34:16.697Z,27.70
2023-02-15T16:37:59.559Z,31.37
2023-02-15T16:41:46.907Z,26.00
2023-02-15T16:45:31.868Z,27.83
2023-02-15T16:49:18.434Z,32.13
2023-02-15T16:53:01.508Z,32.27
2023-02-15T16:56:47.411Z,31.87
2023-02-15T17:00:33.897Z,32.83
2023-02-15T17:04:28.908Z,24.90
2023-02-15T17:08:17.478Z,32.37
2023-02-15T17:12:02.947Z,31.90
2023-02-15T17:16:16.671Z,35.23
2023-02-15T17:19:59.462Z,34.53
2023-02-15T17:23:43.784Z,29.43
2023-02-15T17:27:28.206Z,33.53
2023-02-15T17:31:15.634Z,30.53
2023-02-15T17:35:09.298Z,31.97
2023-02-15T17:39:04.941Z,29.90
2023-02-15T17:42:47.641Z,30.97
2023-02-15T17:46:35.528Z,30.90
2023-02-15T17:50:21.801Z,36.37
2023-02-15T17:54:22.375Z,41.60
2023-02-15T17:58:08.425Z,34.13
2023-02-15T18:02:09.848Z,32.67
2023-02-15T18:06:10.192Z,29.40
2023-02-15T18:10:10.567Z,31.33
2023-02-15T18:13:53.194Z,29.60
2023-02-15T18:17:39.599Z,31.03
2023-02-15T18:21:22.322Z,29.90
2023-02-15T18:25:05.343Z,30.63
2023-02-15T18:28:48.166Z,33.17
2023-02-15T18:32:34.313Z,49.33
2023-02-15T18:36:23.691Z,38.97
2023-02-15T18:40:07.540Z,32.60
2023-02-15T18:43:51.805Z,34.73
2023-02-15T18:47:34.477Z,32.07
2023-02-15T18:51:22.886Z,37.70
2023-02-15T18:55:11.486Z,35.80
2023-02-15T18:58:54.280Z,36.60
2023-02-15T19:02:36.999Z,32.80
2023-02-15T19:06:23.076Z,33.60
2023-02-15T19:10:07.731Z,34.37
2023-02-15T19:13:51.204Z,32.80
2023-02-15T19:17:33.904Z,34.93
2023-02-15T19:21:18.497Z,30.80
2023-02-15T19:25:04.874Z,34.13
2023-02-15T19:28:47.768Z,30.33
2023-02-15T19:32:30.582Z,31.27
2023-02-15T19:36:17.785Z,31.63
2023-02-15T19:40:02.997Z,32.23
2023-02-15T19:43:53.045Z,32.17
2023-02-15T19:47:35.715Z,32.47
2023-02-15T19:51:19.250Z,35.87
2023-02-15T19:55:03.316Z,31.77
2023-02-15T19:58:45.997Z,41.30
2023-02-15T20:02:28.617Z,35.87
2023-02-15T20:06:14.981Z,32.43
2023-02-15T20:09:57.706Z,30.83
2023-02-15T20:13:41.929Z,33.13
2023-02-15T20:17:24.541Z,36.73
2023-02-15T20:21:10.697Z,33.40
2023-02-15T20:24:55.577Z,30.50
2023-02-15T20:28:38.258Z,34.30
2023-02-15T20:32:22.573Z,32.70
2023-02-15T20:36:05.933Z,29.97
2023-02-15T20:39:48.573Z,30.10
2023-02-15T20:43:31.360Z,29.70
2023-02-15T20:47:14.053Z,32.67
2023-02-15T20:50:59.473Z,31.67
2023-02-15T20:54:42.178Z,34.77
2023-02-15T20:58:26.478Z,29.97
2023-02-15T21:02:16.965Z,32.50
2023-02-15T21:06:01.793Z,33.10
2023-02-15T21:09:44.620Z,32.10
2023-02-15T21:13:28.907Z,34.83
2023-02-15T21:17:12.488Z,34.67
2023-02-15T21:20:57.293Z,38.67
2023-02-15T21:24:45.719Z,36.60
2023-02-15T21:28:29.448Z,38.30
2023-02-15T21:32:12.220Z,34.60
2023-02-15T21:35:56.917Z,33.03
2023-02-15T21:39:41.026Z,65.17
2023-02-15T21:43:43.260Z,43.80
2023-02-15T21:47:47.532Z,36.17
2023-02-15T21:51:48.530Z,35.63
2023-02-15T21:55:33.127Z,84.47
2023-02-15T21:59:17.378Z,38.17
2023-02-15T22:03:00.896Z,36.57
2023-02-15T22:06:43.751Z,33.73
2023-02-15T22:10:28.091Z,34.57
2023-02-15T22:14:37.689Z,32.33
2023-02-15T22:18:22.657Z,33.87
2023-02-15T22:22:05.400Z,30.33
2023-02-15T22:25:54.589Z,36.17
2023-02-15T22:29:38.601Z,32.93
2023-02-15T22:33:26.469Z,33.67
2023-02-15T22:37:09.835Z,37.77
2023-02-15T22:40:53.614Z,38.97
2023-02-15T22:44:37.824Z,37.77
2023-02-15T22:48:23.400Z,36.63
2023-02-15T22:52:09.764Z,39.70
2023-02-15T22:55:54.503Z,33.30
2023-02-15T22:59:38.761Z,41.80
2023-02-15T23:03:24.041Z,38.30
2023-02-15T23:07:10.014Z,38.60
2023-02-15T23:10:56.201Z,35.60
2023-02-15T23:14:40.213Z,32.67
2023-02-15T23:18:27.487Z,32.37
2023-02-15T23:22:14.257Z,30.13
2023-02-15T23:25:57.311Z,30.57
2023-02-15T23:29:41.419Z,28.80
2023-02-15T23:33:26.323Z,30.50
2023-02-15T23:37:19.071Z,31.53
2023-02-15T23:41:23.025Z,31.47
2023-02-15T23:45:23.975Z,32.80
2023-02-15T23:49:14.858Z,34.20
2023-02-15T23:52:58.222Z,35.07
2023-02-15T23:56:41.312Z,30.77
